createdAt,value
2018-01-26T00:02:09.794Z,79.90
2018-01-26T00:04:37.546Z,79.80
2018-01-26T00:07:05.327Z,79.60
2018-01-26T00:09:33.447Z,79.80
2018-01-26T00:12:01.250Z,79.70
2018-01-26T00:14:30.078Z,79.80
2018-01-26T00:16:59.329Z,79.80
2018-01-26T00:19:27.017Z,79.80
2018-01-26T00:21:54.778Z,79.80
2018-01-26T00:24:22.522Z,79.80
2018-01-26T00:26:50.290Z,80.00
2018-01-26T00:29:18.049Z,80.10
2018-01-26T00:31:45.925Z,80.10
2018-01-26T00:34:14.548Z,80.20
2018-01-26T00:36:43.723Z,80.20
2018-01-26T00:39:13.110Z,80.00
2018-01-26T00:41:41.491Z,80.00
2018-01-26T00:44:09.182Z,80.20
2018-01-26T00:46:37.750Z,80.20
2018-01-26T00:49:06.217Z,80.10
2018-01-26T00:51:33.961Z,80.30
2018-01-26T00:54:01.829Z,80.20
2018-01-26T00:56:29.633Z,80.40
2018-01-26T00:58:58.185Z,80.20
2018-01-26T01:01:26.657Z,80.10
2018-01-26T01:03:54.853Z,79.90
2018-01-26T01:06:23.267Z,79.90
2018-01-26T01:08:50.973Z,80.00
2018-01-26T01:11:18.836Z,80.00
2018-01-26T01:13:46.855Z,79.70
2018-01-26T01:16:15.491Z,79.60
2018-01-26T01:18:43.360Z,79.60
2018-01-26T01:21:11.836Z,79.50
2018-01-26T01:23:40.208Z,79.60
2018-01-26T01:26:07.939Z,79.70
2018-01-26T01:28:38.822Z,79.70
2018-01-26T01:31:06.507Z,79.90
2018-01-26T01:33:35.775Z,80.10
2018-01-26T01:36:04.670Z,80.60
2018-01-26T01:38:33.126Z,80.00
2018-01-26T01:41:01.004Z,79.90
2018-01-26T01:43:28.843Z,79.90
2018-01-26T01:45:56.536Z,79.90
2018-01-26T01:48:24.260Z,79.80
2018-01-26T01:50:52.056Z,79.80
2018-01-26T01:53:20.312Z,79.80
2018-01-26T01:55:47.994Z,79.90
2018-01-26T01:58:16.484Z,79.80
2018-01-26T02:00:45.064Z,79.90
2018-01-26T02:03:12.772Z,79.80
2018-01-26T02:05:42.017Z,80.10
2018-01-26T02:08:09.990Z,80.20
2018-01-26T02:10:37.852Z,80.00
2018-01-26T02:13:05.501Z,80.00
2018-01-26T02:15:33.275Z,79.90
2018-01-26T02:18:00.974Z,79.80
2018-01-26T02:20:30.031Z,80.00
2018-01-26T02:22:58.204Z,79.90
2018-01-26T02:25:25.967Z,79.90
2018-01-26T02:27:53.837Z,80.00
2018-01-26T02:30:21.521Z,80.00
2018-01-26T02:32:49.908Z,80.10
2018-01-26T02:35:18.300Z,80.10
2018-01-26T02:37:46.945Z,79.90
2018-01-26T02:40:14.702Z,79.90
2018-01-26T02:42:42.568Z,79.90
2018-01-26T02:45:10.571Z,80.10
2018-01-26T02:47:38.399Z,80.20
2018-01-26T02:50:06.980Z,80.50
2018-01-26T02:52:34.743Z,80.20
2018-01-26T02:55:02.475Z,80.10
2018-01-26T02:57:30.273Z,80.10
2018-01-26T02:59:57.909Z,80.20
2018-01-26T03:02:25.737Z,80.10
2018-01-26T03:04:54.898Z,80.40
2018-01-26T03:07:22.562Z,81.00
2018-01-26T03:09:50.425Z,80.50
2018-01-26T03:12:18.937Z,80.60
2018-01-26T03:14:47.487Z,80.90
2018-01-26T03:17:15.251Z,80.80
2018-01-26T03:19:43.937Z,81.00
2018-01-26T03:22:11.618Z,81.10
2018-01-26T03:24:39.526Z,81.20
2018-01-26T03:27:07.330Z,81.20
2018-01-26T03:29:35.030Z,81.00
2018-01-26T03:32:04.193Z,80.30
2018-01-26T03:34:32.011Z,80.30
2018-01-26T03:37:00.987Z,80.10
2018-01-26T03:39:29.803Z,80.40
2018-01-26T03:41:57.824Z,80.40
2018-01-26T03:44:25.764Z,80.50
2018-01-26T03:46:53.667Z,80.60
2018-01-26T03:49:22.210Z,80.80
2018-01-26T03:51:49.910Z,81.40
2018-01-26T03:54:18.374Z,81.00
2018-01-26T03:56:46.247Z,80.90
2018-01-26T03:59:14.084Z,80.80
2018-01-26T04:01:41.884Z,80.70
2018-01-26T04:04:10.431Z,80.60
2018-01-26T04:06:38.128Z,80.50
2018-01-26T04:09:05.790Z,80.80
2018-01-26T04:11:33.526Z,80.80
2018-01-26T04:14:01.382Z,81.10
2018-01-26T04:16:29.061Z,81.00
2018-01-26T04:18:57.700Z,81.00
2018-01-26T04:21:25.754Z,81.00
2018-01-26T04:23:55.198Z,80.80
2018-01-26T04:26:23.336Z,80.80
2018-01-26T04:28:51.691Z,80.90
2018-01-26T04:31:20.346Z,80.50
2018-01-26T04:33:48.210Z,80.50
2018-01-26T04:36:15.909Z,80.50
2018-01-26T04:38:44.369Z,80.50
2018-01-26T04:41:12.307Z,80.50
2018-01-26T04:43:40.069Z,80.40
2018-01-26T04:46:07.798Z,80.40
2018-01-26T04:48:36.212Z,80.40
2018-01-26T04:51:03.975Z,80.10
2018-01-26T04:53:31.739Z,79.80
2018-01-26T04:55:59.395Z,79.00
2018-01-26T04:58:27.162Z,78.40
2018-01-26T05:00:55.028Z,78.30
2018-01-26T05:03:22.829Z,78.40
2018-01-26T05:05:50.659Z,78.70
2018-01-26T05:08:18.362Z,79.00
2018-01-26T05:10:46.905Z,78.80
2018-01-26T05:13:14.705Z,78.70
2018-01-26T05:15:42.530Z,79.00
2018-01-26T05:18:10.564Z,78.80
2018-01-26T05:20:39.281Z,78.70
2018-01-26T05:23:07.267Z,78.90
2018-01-26T05:25:36.111Z,78.90
2018-01-26T05:28:04.470Z,78.90
2018-01-26T05:30:33.002Z,79.20
2018-01-26T05:33:00.868Z,79.20
2018-01-26T05:35:28.584Z,79.20
2018-01-26T05:37:57.059Z,79.60
2018-01-26T05:40:25.692Z,78.60
2018-01-26T05:42:53.414Z,78.40
2018-01-26T05:45:22.253Z,78.40
2018-01-26T05:47:50.865Z,78.20
2018-01-26T05:50:20.009Z,78.20
2018-01-26T05:52:47.786Z,78.20
2018-01-26T05:55:15.653Z,78.10
2018-01-26T05:57:43.417Z,78.10
2018-01-26T06:00:11.097Z,78.20
2018-01-26T06:02:39.195Z,78.00
2018-01-26T06:05:07.735Z,77.50
2018-01-26T06:07:35.596Z,77.50
2018-01-26T06:10:03.360Z,77.60
2018-01-26T06:12:31.069Z,77.20
2018-01-26T06:15:00.220Z,77.10
2018-01-26T06:17:28.211Z,77.10
2018-01-26T06:19:56.566Z,77.00
2018-01-26T06:22:24.254Z,77.10
2018-01-26T06:24:52.052Z,77.10
2018-01-26T06:27:20.466Z,76.70
2018-01-26T06:29:48.238Z,76.80
2018-01-26T06:32:16.070Z,77.00
2018-01-26T06:34:43.862Z,77.20
2018-01-26T06:37:12.241Z,77.50
2018-01-26T06:39:40.108Z,76.60
2018-01-26T06:42:07.873Z,76.80
2018-01-26T06:44:35.590Z,76.70
2018-01-26T06:47:03.302Z,76.30
2018-01-26T06:49:31.888Z,76.30
2018-01-26T06:52:00.305Z,76.30
2018-01-26T06:54:28.439Z,76.40
2018-01-26T06:56:56.188Z,76.80
2018-01-26T06:59:24.582Z,76.80
2018-01-26T07:01:53.063Z,76.70
2018-01-26T07:04:20.913Z,77.10
2018-01-26T07:06:48.781Z,77.10
2018-01-26T07:09:16.542Z,76.90
2018-01-26T07:11:44.230Z,76.60
2018-01-26T07:14:11.894Z,76.40
2018-01-26T07:16:40.690Z,76.60
2018-01-26T07:19:09.823Z,76.10
2018-01-26T07:21:37.502Z,76.30
2018-01-26T07:24:05.784Z,76.10
2018-01-26T07:26:33.550Z,75.70
2018-01-26T07:29:01.411Z,75.70
2018-01-26T07:31:30.008Z,75.50
2018-01-26T07:33:57.764Z,75.30
2018-01-26T07:36:25.401Z,75.40
2018-01-26T07:38:53.378Z,75.70
2018-01-26T07:41:21.391Z,75.80
2018-01-26T07:43:50.791Z,75.90
2018-01-26T07:46:19.343Z,75.90
2018-01-26T07:48:47.140Z,75.80
2018-01-26T07:51:14.971Z,75.60
2018-01-26T07:53:43.335Z,75.70
2018-01-26T07:56:12.524Z,75.30
2018-01-26T07:58:40.881Z,75.20
2018-01-26T08:01:09.351Z,74.60
2018-01-26T08:03:38.007Z,74.70
2018-01-26T08:06:05.850Z,74.70
2018-01-26T08:08:33.613Z,74.40
2018-01-26T08:11:01.480Z,74.70
2018-01-26T08:13:30.064Z,74.50
2018-01-26T08:15:58.393Z,74.80
2018-01-26T08:18:26.872Z,75.00
2018-01-26T08:20:55.779Z,74.70
2018-01-26T08:23:23.667Z,74.70
2018-01-26T08:25:51.324Z,74.50
2018-01-26T08:28:19.574Z,73.90
2018-01-26T08:30:48.194Z,73.90
2018-01-26T08:33:16.560Z,74.40
2018-01-26T08:35:44.644Z,74.40
2018-01-26T08:38:12.455Z,74.40
2018-01-26T08:40:40.988Z,74.40
2018-01-26T08:43:08.855Z,74.40
2018-01-26T08:45:36.501Z,74.50
2018-01-26T08:48:04.278Z,74.20
2018-01-26T08:50:31.965Z,73.90
2018-01-26T08:53:01.341Z,73.60
2018-01-26T08:55:29.216Z,73.60
2018-01-26T08:57:57.032Z,73.80
2018-01-26T09:00:25.772Z,73.90
2018-01-26T09:02:53.489Z,73.90
2018-01-26T09:05:21.285Z,73.70
2018-01-26T09:07:50.074Z,74.20
2018-01-26T09:10:17.834Z,74.00
2018-01-26T09:12:45.613Z,73.30
2018-01-26T09:15:13.957Z,73.50
2018-01-26T09:17:42.301Z,73.40
2018-01-26T09:20:11.450Z,73.50
2018-01-26T09:22:39.320Z,73.50
2018-01-26T09:25:07.299Z,73.30
2018-01-26T09:27:34.972Z,73.50
2018-01-26T09:30:02.812Z,73.80
2018-01-26T09:32:30.613Z,73.40
2018-01-26T09:34:59.042Z,73.60
2018-01-26T09:37:27.634Z,73.30
2018-01-26T09:39:55.500Z,73.20
2018-01-26T09:42:23.371Z,73.30
2018-01-26T09:44:51.234Z,73.40
2018-01-26T09:47:19.200Z,73.20
2018-01-26T09:49:47.009Z,73.10
2018-01-26T09:52:15.580Z,73.30
2018-01-26T09:54:44.058Z,73.30
2018-01-26T09:57:11.796Z,73.10
2018-01-26T09:59:39.892Z,73.10
2018-01-26T10:02:08.590Z,72.90
2018-01-26T10:04:37.235Z,72.90
2018-01-26T10:07:05.506Z,72.90
2018-01-26T10:09:33.427Z,73.00
2018-01-26T10:12:02.119Z,73.10
2018-01-26T10:14:30.325Z,73.10
2018-01-26T10:16:58.011Z,73.10
2018-01-26T10:19:25.979Z,73.20
2018-01-26T10:21:53.857Z,72.90
2018-01-26T10:24:22.511Z,73.40
2018-01-26T10:26:50.346Z,73.40
2018-01-26T10:29:18.241Z,73.30
2018-01-26T10:31:46.129Z,73.50
2018-01-26T10:34:14.588Z,73.40
2018-01-26T10:36:42.350Z,73.60
2018-01-26T10:39:10.220Z,73.70
2018-01-26T10:41:38.085Z,73.70
2018-01-26T10:44:05.845Z,74.40
2018-01-26T10:46:33.819Z,74.70
2018-01-26T10:49:01.525Z,74.70
2018-01-26T10:51:29.936Z,75.00
2018-01-26T10:53:58.213Z,74.90
2018-01-26T10:56:25.994Z,75.10
2018-01-26T10:58:54.000Z,75.40
2018-01-26T11:01:22.692Z,76.00
2018-01-26T11:03:51.237Z,76.40
2018-01-26T11:06:18.943Z,76.40
2018-01-26T11:08:47.416Z,76.50
2018-01-26T11:11:15.891Z,77.30
2018-01-26T11:13:44.538Z,76.90
2018-01-26T11:16:12.298Z,76.90
2018-01-26T11:18:40.115Z,76.30
2018-01-26T11:21:08.755Z,76.50
2018-01-26T11:23:37.432Z,76.70
2018-01-26T11:26:05.912Z,76.70
2018-01-26T11:28:33.983Z,76.80
2018-01-26T11:31:01.694Z,77.20
2018-01-26T11:33:30.275Z,77.30
2018-01-26T11:35:58.915Z,77.20
2018-01-26T11:38:26.914Z,77.20
2018-01-26T11:40:55.673Z,77.40
2018-01-26T11:43:23.430Z,77.30
2018-01-26T11:45:51.144Z,77.80
2018-01-26T11:48:19.612Z,77.80
2018-01-26T11:50:48.781Z,77.80
2018-01-26T11:53:16.782Z,77.80
2018-01-26T11:55:45.435Z,77.10
2018-01-26T11:58:13.072Z,77.10
2018-01-26T12:00:41.361Z,77.20
2018-01-26T12:03:09.534Z,77.00
2018-01-26T12:05:37.295Z,77.20
2018-01-26T12:08:05.160Z,76.90
2018-01-26T12:10:32.961Z,76.10
2018-01-26T12:13:00.788Z,75.70
2018-01-26T12:15:28.552Z,75.80
2018-01-26T12:17:56.350Z,75.20
2018-01-26T12:20:24.181Z,75.40
2018-01-26T12:22:51.845Z,76.00
2018-01-26T12:25:19.812Z,75.60
2018-01-26T12:27:48.189Z,75.70
2018-01-26T12:30:16.692Z,75.70
2018-01-26T12:32:46.296Z,76.10
2018-01-26T12:35:14.530Z,75.50
2018-01-26T12:37:42.220Z,75.40
2018-01-26T12:40:10.076Z,75.50
2018-01-26T12:42:38.871Z,75.10
2018-01-26T12:45:06.631Z,75.10
2018-01-26T12:47:34.312Z,75.10
2018-01-26T12:50:02.155Z,75.00
2018-01-26T12:52:30.038Z,74.80
2018-01-26T12:54:57.701Z,75.10
2018-01-26T12:57:25.662Z,75.20
2018-01-26T12:59:53.555Z,75.40
2018-01-26T13:02:22.816Z,75.60
2018-01-26T13:04:50.578Z,75.60
2018-01-26T13:07:18.627Z,75.20
2018-01-26T13:09:46.309Z,75.40
2018-01-26T13:12:14.074Z,75.10
2018-01-26T13:14:42.231Z,75.20
2018-01-26T13:17:10.116Z,75.50
2018-01-26T13:19:37.760Z,75.50
2018-01-26T13:22:05.540Z,75.60
2018-01-26T13:24:33.186Z,75.60
2018-01-26T13:27:01.769Z,75.60
2018-01-26T13:29:29.755Z,75.50
2018-01-26T13:31:57.385Z,74.90
2018-01-26T13:34:25.422Z,75.00
2018-01-26T13:36:53.966Z,74.50
2018-01-26T13:39:22.037Z,74.60
2018-01-26T13:41:49.801Z,74.80
2018-01-26T13:44:18.207Z,75.20
2018-01-26T13:46:46.073Z,75.20
2018-01-26T13:49:13.903Z,76.00
2018-01-26T13:51:41.789Z,76.20
2018-01-26T13:54:09.532Z,75.50
2018-01-26T13:56:37.183Z,75.70
2018-01-26T13:59:05.196Z,75.50
2018-01-26T14:01:33.026Z,76.10
2018-01-26T14:04:02.230Z,75.50
2018-01-26T14:06:29.892Z,75.20
2018-01-26T14:08:57.755Z,75.30
2018-01-26T14:11:25.616Z,74.70
2018-01-26T14:13:53.557Z,74.40
2018-01-26T14:16:22.541Z,73.90
2018-01-26T14:18:50.220Z,73.90
2018-01-26T14:21:17.970Z,73.70
2018-01-26T14:23:45.710Z,73.30
2018-01-26T14:26:14.483Z,73.70
2018-01-26T14:28:43.035Z,73.70
2018-01-26T14:31:10.939Z,73.80
2018-01-26T14:33:39.531Z,73.00
2018-01-26T14:36:08.518Z,72.80
2018-01-26T14:38:36.977Z,72.80
2018-01-26T14:41:05.119Z,72.80
2018-01-26T14:43:33.138Z,72.70
2018-01-26T14:46:01.986Z,72.80
2018-01-26T14:48:29.877Z,72.80
2018-01-26T14:50:58.223Z,72.50
2018-01-26T14:53:26.153Z,73.00
2018-01-26T14:55:54.060Z,73.10
2018-01-26T14:58:21.823Z,73.20
2018-01-26T15:00:49.742Z,73.40
2018-01-26T15:03:18.272Z,72.80
2018-01-26T15:05:46.113Z,72.70
2018-01-26T15:08:13.907Z,72.80
2018-01-26T15:10:41.666Z,73.20
2018-01-26T15:13:09.366Z,73.50
2018-01-26T15:15:38.055Z,73.20
2018-01-26T15:18:06.597Z,73.30
2018-01-26T15:20:34.606Z,73.30
2018-01-26T15:23:03.959Z,74.30
2018-01-26T15:25:31.892Z,73.60
2018-01-26T15:27:59.771Z,73.60
2018-01-26T15:30:29.403Z,73.60
2018-01-26T15:32:57.093Z,73.60
2018-01-26T15:35:24.827Z,73.90
2018-01-26T15:37:53.614Z,74.40
2018-01-26T15:40:22.168Z,75.10
2018-01-26T15:42:49.962Z,74.70
2018-01-26T15:45:17.828Z,74.80
2018-01-26T15:47:45.811Z,74.70
2018-01-26T15:50:13.855Z,74.80
2018-01-26T15:52:42.477Z,74.90
2018-01-26T15:55:10.211Z,75.20
2018-01-26T15:57:37.975Z,75.20
2018-01-26T16:00:05.765Z,75.20
2018-01-26T16:02:34.221Z,75.20
2018-01-26T16:05:02.011Z,75.10
2018-01-26T16:07:29.891Z,74.60
2018-01-26T16:09:58.532Z,73.30
2018-01-26T16:12:26.222Z,73.30
2018-01-26T16:14:54.775Z,73.60
2018-01-26T16:17:22.906Z,73.50
2018-01-26T16:19:51.139Z,73.40
2018-01-26T16:22:18.810Z,73.80
2018-01-26T16:24:47.261Z,73.40
2018-01-26T16:27:14.902Z,73.30
2018-01-26T16:29:42.720Z,73.60
2018-01-26T16:32:11.041Z,73.80
2018-01-26T16:34:38.828Z,74.70
2018-01-26T16:37:07.214Z,74.00
2018-01-26T16:39:34.973Z,74.20
2018-01-26T16:42:03.352Z,74.40
2018-01-26T16:44:31.039Z,74.30
2018-01-26T16:46:58.884Z,74.50
2018-01-26T16:49:26.644Z,74.60
2018-01-26T16:51:54.406Z,74.70
2018-01-26T16:54:22.274Z,75.00
2018-01-26T16:56:50.039Z,75.10
2018-01-26T16:59:17.909Z,75.80
2018-01-26T17:01:45.765Z,75.20
2018-01-26T17:04:13.437Z,75.20
2018-01-26T17:06:41.096Z,75.70
2018-01-26T17:09:09.478Z,75.60
2018-01-26T17:11:38.064Z,75.70
2018-01-26T17:14:05.909Z,75.70
2018-01-26T17:16:33.811Z,75.70
2018-01-26T17:19:02.170Z,75.70
2018-01-26T17:21:29.965Z,75.90
2018-01-26T17:23:58.459Z,75.70
2018-01-26T17:26:26.283Z,75.70
2018-01-26T17:28:54.026Z,75.60
2018-01-26T17:31:22.329Z,75.80
2018-01-26T17:33:50.094Z,75.90
2018-01-26T17:36:17.828Z,75.80
2018-01-26T17:38:45.513Z,75.90
2018-01-26T17:41:14.001Z,76.00
2018-01-26T17:43:43.469Z,76.20
2018-01-26T17:46:11.113Z,76.20
2018-01-26T17:48:42.175Z,76.30
2018-01-26T17:51:10.179Z,76.80
2018-01-26T17:53:38.009Z,76.30
2018-01-26T17:56:05.879Z,76.30
2018-01-26T17:58:34.003Z,76.20
2018-01-26T18:01:02.618Z,76.30
2018-01-26T18:03:30.422Z,76.30
2018-01-26T18:05:58.079Z,76.20
2018-01-26T18:08:27.089Z,76.10
2018-01-26T18:10:56.476Z,76.50
2018-01-26T18:13:25.747Z,76.10
2018-01-26T18:15:54.376Z,76.10
2018-01-26T18:18:24.049Z,76.00
2018-01-26T18:20:52.528Z,76.60
2018-01-26T18:23:20.213Z,76.00
2018-01-26T18:25:48.046Z,75.90
2018-01-26T18:28:15.744Z,75.90
2018-01-26T18:30:44.084Z,76.00
2018-01-26T18:33:12.055Z,76.00
2018-01-26T18:35:40.413Z,76.10
2018-01-26T18:38:08.810Z,76.30
2018-01-26T18:40:36.466Z,76.30
2018-01-26T18:43:04.356Z,77.10
2018-01-26T18:45:32.978Z,76.70
2018-01-26T18:48:01.502Z,76.70
2018-01-26T18:50:29.368Z,76.70
2018-01-26T18:52:57.849Z,76.50
2018-01-26T18:55:25.508Z,76.40
2018-01-26T18:57:53.271Z,76.30
2018-01-26T19:00:21.089Z,76.10
2018-01-26T19:02:50.129Z,76.30
2018-01-26T19:05:17.812Z,76.30
2018-01-26T19:07:45.656Z,76.10
2018-01-26T19:10:13.420Z,76.00
2018-01-26T19:12:41.133Z,75.90
2018-01-26T19:15:09.667Z,76.40
2018-01-26T19:17:38.001Z,76.40
2018-01-26T19:20:05.639Z,76.80
2018-01-26T19:22:33.298Z,76.70
2018-01-26T19:25:02.016Z,76.20
2018-01-26T19:27:29.653Z,77.50
2018-01-26T19:29:58.452Z,77.00
2018-01-26T19:32:27.048Z,76.90
2018-01-26T19:34:55.048Z,76.90
2018-01-26T19:37:23.425Z,76.90
2018-01-26T19:39:51.110Z,77.10
2018-01-26T19:42:18.843Z,77.20
2018-01-26T19:44:46.615Z,77.00
2018-01-26T19:47:14.289Z,77.10
2018-01-26T19:49:42.146Z,76.90
2018-01-26T19:52:10.006Z,77.00
2018-01-26T19:54:37.771Z,76.90
2018-01-26T19:57:05.652Z,77.00
2018-01-26T19:59:34.052Z,77.10
2018-01-26T20:02:02.796Z,77.30
2018-01-26T20:04:36.503Z,77.30
2018-01-26T20:07:21.778Z,77.30
2018-01-26T20:09:49.626Z,77.30
2018-01-26T20:12:17.410Z,77.30
2018-01-26T20:14:45.273Z,77.30
2018-01-26T20:17:13.038Z,77.40
2018-01-26T20:19:40.785Z,77.40
2018-01-26T20:22:08.426Z,77.30
2018-01-26T20:24:36.064Z,77.40
2018-01-26T20:27:04.890Z,77.30
2018-01-26T20:29:32.734Z,77.30
2018-01-26T20:32:00.534Z,77.40
2018-01-26T20:34:28.227Z,77.40
2018-01-26T20:36:55.901Z,77.30
2018-01-26T20:39:24.952Z,77.50
2018-01-26T20:41:52.729Z,77.50
2018-01-26T20:44:20.491Z,77.30
2018-01-26T20:46:48.650Z,77.30
2018-01-26T20:49:16.437Z,77.50
2018-01-26T20:51:44.181Z,77.50
2018-01-26T20:54:12.047Z,77.60
2018-01-26T20:56:39.812Z,77.70
2018-01-26T20:59:07.498Z,77.60
2018-01-26T21:01:35.853Z,77.40
2018-01-26T21:04:03.613Z,77.20
2018-01-26T21:06:31.404Z,77.30
2018-01-26T21:08:59.048Z,77.30
2018-01-26T21:11:26.765Z,77.30
2018-01-26T21:13:54.420Z,77.40
2018-01-26T21:16:22.902Z,77.30
2018-01-26T21:18:51.357Z,77.20
2018-01-26T21:21:19.189Z,77.20
2018-01-26T21:23:47.039Z,77.10
2018-01-26T21:26:14.812Z,77.10
2018-01-26T21:28:43.843Z,77.20
2018-01-26T21:31:13.054Z,76.90
2018-01-26T21:33:41.689Z,76.80
2018-01-26T21:36:10.272Z,76.90
2018-01-26T21:38:39.059Z,76.90
2018-01-26T21:41:07.477Z,76.90
2018-01-26T21:43:35.203Z,76.90
2018-01-26T21:46:02.973Z,77.00
2018-01-26T21:48:30.849Z,77.00
2018-01-26T21:50:59.441Z,77.90
2018-01-26T21:53:27.278Z,77.20
2018-01-26T21:55:56.066Z,77.30
2018-01-26T21:58:23.775Z,77.10
2018-01-26T22:00:52.212Z,76.70
2018-01-26T22:03:19.974Z,76.70
2018-01-26T22:05:47.839Z,76.80
2018-01-26T22:08:15.705Z,76.90
2018-01-26T22:10:43.559Z,77.10
2018-01-26T22:13:11.334Z,77.10
2018-01-26T22:15:39.198Z,77.20
2018-01-26T22:18:07.171Z,77.30
2018-01-26T22:20:35.448Z,77.40
2018-01-26T22:23:03.314Z,77.40
2018-01-26T22:25:31.175Z,77.30
2018-01-26T22:27:59.658Z,77.30
2018-01-26T22:30:27.449Z,77.30
2018-01-26T22:32:55.282Z,77.20
2018-01-26T22:35:23.049Z,77.00
2018-01-26T22:37:51.117Z,77.10
2018-01-26T22:40:18.912Z,77.30
2018-01-26T22:42:48.180Z,77.60
2018-01-26T22:45:16.459Z,77.60
2018-01-26T22:47:44.218Z,77.80
2018-01-26T22:50:11.983Z,77.90
2018-01-26T22:52:39.749Z,78.10
2018-01-26T22:55:07.443Z,78.20
2018-01-26T22:57:35.086Z,78.20
2018-01-26T23:00:02.811Z,78.00
2018-01-26T23:02:30.595Z,78.00
2018-01-26T23:04:58.664Z,78.00
2018-01-26T23:07:26.927Z,78.20
2018-01-26T23:09:55.284Z,78.20
2018-01-26T23:12:23.080Z,78.00
2018-01-26T23:14:50.974Z,78.00
2018-01-26T23:17:18.823Z,77.80
2018-01-26T23:19:46.679Z,78.20
2018-01-26T23:24:49.171Z,77.80
2018-01-26T23:27:16.816Z,78.20
2018-01-26T23:29:44.512Z,78.00
2018-01-26T23:32:12.251Z,77.90
2018-01-26T23:34:39.941Z,78.10
2018-01-26T23:37:07.679Z,78.90
2018-01-26T23:39:36.300Z,78.20
2018-01-26T23:42:04.848Z,78.20
2018-01-26T23:44:32.714Z,78.30
2018-01-26T23:47:00.965Z,78.20
2018-01-26T23:49:28.617Z,77.90
2018-01-26T23:51:56.413Z,77.90
2018-01-26T23:54:24.284Z,78.10
2018-01-26T23:56:52.009Z,78.10
2018-01-26T23:59:19.809Z,78.00
